Airfield :
LOGIN :

Register | Disclaimer

   EN    FR    IT 

 










Legend :    VFR   Marginal VFR   IFR   Intensive IFR   Very Intensive IFR
Visi :
Ceiling :
>= 8 km
>= 3000ft
5 to 8 km
1000 to 3000 ft
1500m to 5 km
500 to 1000 ft
800 to 1500m
200 to 500 ft
< 800m
< 200 ft
Symbols :   Thunderstorms  Fog  Heavy snow  Heavy precipitations  Wind > 20 kt
SIGMETs :     Misc.  Thunderstorms  Icing  Turbulence  Mountain Waves  Volcanic Ashes







- Airport Elevation : 1682 ft
- IATA code : VIT


LEVT - Vitoria Gasteiz

CURRENT METAR :
  • 160730Z 07004KT 050V210 9999 FEW014 SCT030 M01/M02 Q1017

EXPIRED METARs :
  • 160700Z 21007KT 9999 FEW020 01/00 Q1017
  • 160630Z VRB02KT 9999 FEW020 02/01 Q1017
  • 160600Z VRB01KT 9999 FEW020 02/01 Q1017
  • 160530Z 22006KT 9000 FEW020 01/00 Q1017
  • 160500Z 20003KT 160V240 9000 FEW020 01/M00 Q1017

TAF AMD TAF LEVT
Valid from the 16 at 06:00 until the 17 at 06:00 UTC


160631Z 1606/1706 VRB02KT 9999 FEW030 TX11/1615Z TNM01/1606Z
PROB40
TEMPO 1606/1611 1500 BCFG
PROB40
TEMPO 1606/1610 0350 FZFG FG VV001
TEMPO 1610/1618 24010KT
PROB40
TEMPO 1622/1706 3000 RA BKN010
No reported NOTAMs for that airfield.



MET'MAP, your aeronautical weather chart ! - Copyright ORBIFLY December 2007 - Disclaimer

ORBIFLY MET'MAP TEAM :

Programming & Development : Alexandra Zaïnal
Concept & Development : Baudouin d'Aumeries
Co-Development & Prog : Marc-Olivier Méhu
Technical & hardware support : Manuel Goepfert

Contact : metmap@orbifly.com




SOURCES & CREDITS :

   NOAA